sensor_id;sensor_type;location;lat;lon;timestamp;temperature;humidity
21616;DHT22;10970;48.714;9.584;2023-02-23T00:00:41;6.70;99.90
21616;DHT22;10970;48.714;9.584;2023-02-23T00:03:09;6.70;99.90
21616;DHT22;10970;48.714;9.584;2023-02-23T00:05:35;6.70;99.90
21616;DHT22;10970;48.714;9.584;2023-02-23T00:08:01;6.80;99.90
21616;DHT22;10970;48.714;9.584;2023-02-23T00:10:27;6.80;99.90
21616;DHT22;10970;48.714;9.584;2023-02-23T00:12:59;6.80;99.90
21616;DHT22;10970;48.714;9.584;2023-02-23T00:15:28;6.90;99.90
21616;DHT22;10970;48.714;9.584;2023-02-23T00:17:55;7.00;99.90
21616;DHT22;10970;48.714;9.584;2023-02-23T00:20:22;7.00;99.90
21616;DHT22;10970;48.714;9.584;2023-02-23T00:22:56;7.00;99.90
21616;DHT22;10970;48.714;9.584;2023-02-23T00:25:23;7.00;99.90
21616;DHT22;10970;48.714;9.584;2023-02-23T00:27:50;6.90;99.90
21616;DHT22;10970;48.714;9.584;2023-02-23T00:30:18;6.90;99.90
21616;DHT22;10970;48.714;9.584;2023-02-23T00:32:44;6.90;99.90
21616;DHT22;10970;48.714;9.584;2023-02-23T00:35:10;7.00;99.90
21616;DHT22;10970;48.714;9.584;2023-02-23T00:37:47;7.00;99.90
21616;DHT22;10970;48.714;9.584;2023-02-23T00:40:14;7.00;99.90
21616;DHT22;10970;48.714;9.584;2023-02-23T00:42:44;7.10;99.90
21616;DHT22;10970;48.714;9.584;2023-02-23T00:45:12;7.10;99.90
21616;DHT22;10970;48.714;9.584;2023-02-23T00:47:39;7.00;99.90
21616;DHT22;10970;48.714;9.584;2023-02-23T00:50:08;7.00;99.90
21616;DHT22;10970;48.714;9.584;2023-02-23T00:52:38;7.00;99.90
21616;DHT22;10970;48.714;9.584;2023-02-23T00:55:05;7.10;99.90
21616;DHT22;10970;48.714;9.584;2023-02-23T00:57:31;7.10;99.90
21616;DHT22;10970;48.714;9.584;2023-02-23T00:59:57;7.10;99.90
21616;DHT22;10970;48.714;9.584;2023-02-23T01:02:23;7.10;99.90
21616;DHT22;10970;48.714;9.584;2023-02-23T01:04:49;7.10;99.90
21616;DHT22;10970;48.714;9.584;2023-02-23T01:07:15;7.20;99.90
21616;DHT22;10970;48.714;9.584;2023-02-23T01:09:40;7.20;99.90
21616;DHT22;10970;48.714;9.584;2023-02-23T01:12:06;7.20;99.90
21616;DHT22;10970;48.714;9.584;2023-02-23T01:14:33;7.10;99.90
21616;DHT22;10970;48.714;9.584;2023-02-23T01:16:59;7.10;99.90
21616;DHT22;10970;48.714;9.584;2023-02-23T01:19:24;7.10;99.90
21616;DHT22;10970;48.714;9.584;2023-02-23T01:21:50;7.10;99.90
21616;DHT22;10970;48.714;9.584;2023-02-23T01:24:16;7.10;99.90
21616;DHT22;10970;48.714;9.584;2023-02-23T01:26:43;7.10;99.90
21616;DHT22;10970;48.714;9.584;2023-02-23T01:29:15;7.20;99.90
21616;DHT22;10970;48.714;9.584;2023-02-23T01:31:48;7.20;99.90
21616;DHT22;10970;48.714;9.584;2023-02-23T01:34:16;7.10;99.90
21616;DHT22;10970;48.714;9.584;2023-02-23T01:36:43;7.10;99.90
21616;DHT22;10970;48.714;9.584;2023-02-23T01:39:14;7.10;99.90
21616;DHT22;10970;48.714;9.584;2023-02-23T01:41:40;7.10;99.90
21616;DHT22;10970;48.714;9.584;2023-02-23T01:46:42;7.10;99.90
21616;DHT22;10970;48.714;9.584;2023-02-23T01:49:18;7.10;99.90
21616;DHT22;10970;48.714;9.584;2023-02-23T01:51:50;7.10;99.90
21616;DHT22;10970;48.714;9.584;2023-02-23T01:54:20;7.10;99.90
21616;DHT22;10970;48.714;9.584;2023-02-23T01:56:50;7.10;99.90
21616;DHT22;10970;48.714;9.584;2023-02-23T01:59:24;7.10;99.90
21616;DHT22;10970;48.714;9.584;2023-02-23T02:01:53;7.10;99.90
21616;DHT22;10970;48.714;9.584;2023-02-23T02:04:20;7.20;99.90
21616;DHT22;10970;48.714;9.584;2023-02-23T02:06:48;7.30;99.90
21616;DHT22;10970;48.714;9.584;2023-02-23T02:09:18;7.30;99.90
21616;DHT22;10970;48.714;9.584;2023-02-23T02:11:45;7.30;99.90
21616;DHT22;10970;48.714;9.584;2023-02-23T02:14:24;7.20;99.90
21616;DHT22;10970;48.714;9.584;2023-02-23T02:22:50;7.10;99.90
21616;DHT22;10970;48.714;9.584;2023-02-23T02:25:22;7.10;99.90
21616;DHT22;10970;48.714;9.584;2023-02-23T02:33:18;7.10;99.90
21616;DHT22;10970;48.714;9.584;2023-02-23T02:41:42;7.10;99.90
21616;DHT22;10970;48.714;9.584;2023-02-23T02:44:29;7.10;99.90
21616;DHT22;10970;48.714;9.584;2023-02-23T02:47:27;7.10;99.90
21616;DHT22;10970;48.714;9.584;2023-02-23T02:50:01;7.10;99.90
21616;DHT22;10970;48.714;9.584;2023-02-23T02:52:38;7.10;99.90
21616;DHT22;10970;48.714;9.584;2023-02-23T02:55:19;7.10;99.90
21616;DHT22;10970;48.714;9.584;2023-02-23T02:57:49;7.10;99.90
21616;DHT22;10970;48.714;9.584;2023-02-23T03:00:27;7.10;99.90
21616;DHT22;10970;48.714;9.584;2023-02-23T03:03:34;7.20;99.90
21616;DHT22;10970;48.714;9.584;2023-02-23T03:06:23;7.10;99.90
21616;DHT22;10970;48.714;9.584;2023-02-23T03:21:24;7.00;99.90
21616;DHT22;10970;48.714;9.584;2023-02-23T03:24:59;7.00;99.90
21616;DHT22;10970;48.714;9.584;2023-02-23T03:27:30;7.00;99.90
21616;DHT22;10970;48.714;9.584;2023-02-23T03:30:33;6.90;99.90
21616;DHT22;10970;48.714;9.584;2023-02-23T03:33:29;6.90;99.90
21616;DHT22;10970;48.714;9.584;2023-02-23T03:36:19;6.90;99.90
21616;DHT22;10970;48.714;9.584;2023-02-23T03:39:30;6.90;99.90
21616;DHT22;10970;48.714;9.584;2023-02-23T03:42:18;6.90;99.90
21616;DHT22;10970;48.714;9.584;2023-02-23T03:45:10;7.00;99.90
21616;DHT22;10970;48.714;9.584;2023-02-23T03:47:57;7.10;99.90
21616;DHT22;10970;48.714;9.584;2023-02-23T03:50:48;7.10;99.90
21616;DHT22;10970;48.714;9.584;2023-02-23T03:53:58;7.10;99.90
21616;DHT22;10970;48.714;9.584;2023-02-23T03:56:47;7.00;99.90
21616;DHT22;10970;48.714;9.584;2023-02-23T03:59:38;6.90;99.90
21616;DHT22;10970;48.714;9.584;2023-02-23T04:02:23;6.90;99.90
21616;DHT22;10970;48.714;9.584;2023-02-23T04:05:11;7.00;99.90
21616;DHT22;10970;48.714;9.584;2023-02-23T04:08:00;7.00;99.90
21616;DHT22;10970;48.714;9.584;2023-02-23T04:10:49;7.10;99.90
21616;DHT22;10970;48.714;9.584;2023-02-23T04:13:36;7.10;99.90
21616;DHT22;10970;48.714;9.584;2023-02-23T04:16:05;7.00;99.90
21616;DHT22;10970;48.714;9.584;2023-02-23T04:18:33;7.00;99.90
21616;DHT22;10970;48.714;9.584;2023-02-23T04:21:00;7.10;99.90
21616;DHT22;10970;48.714;9.584;2023-02-23T04:23:27;7.00;99.90
21616;DHT22;10970;48.714;9.584;2023-02-23T04:25:53;7.00;99.90
21616;DHT22;10970;48.714;9.584;2023-02-23T04:28:20;7.10;99.90
21616;DHT22;10970;48.714;9.584;2023-02-23T04:30:46;7.10;99.90
21616;DHT22;10970;48.714;9.584;2023-02-23T04:33:12;7.10;99.90
21616;DHT22;10970;48.714;9.584;2023-02-23T04:35:39;7.10;99.90
21616;DHT22;10970;48.714;9.584;2023-02-23T04:38:04;7.10;99.90
21616;DHT22;10970;48.714;9.584;2023-02-23T04:40:31;7.00;99.90
21616;DHT22;10970;48.714;9.584;2023-02-23T04:42:56;7.00;99.90
21616;DHT22;10970;48.714;9.584;2023-02-23T04:45:23;7.10;99.90
21616;DHT22;10970;48.714;9.584;2023-02-23T04:47:49;7.20;99.90
21616;DHT22;10970;48.714;9.584;2023-02-23T04:50:15;7.20;99.90
21616;DHT22;10970;48.714;9.584;2023-02-23T04:52:41;7.10;99.90
21616;DHT22;10970;48.714;9.584;2023-02-23T04:55:15;7.20;99.90
21616;DHT22;10970;48.714;9.584;2023-02-23T04:57:41;7.20;99.90
21616;DHT22;10970;48.714;9.584;2023-02-23T05:00:07;7.10;99.90
21616;DHT22;10970;48.714;9.584;2023-02-23T05:02:33;7.10;99.90
21616;DHT22;10970;48.714;9.584;2023-02-23T05:04:59;7.10;99.90
21616;DHT22;10970;48.714;9.584;2023-02-23T05:07:25;7.10;99.90
21616;DHT22;10970;48.714;9.584;2023-02-23T05:09:50;7.20;99.90
21616;DHT22;10970;48.714;9.584;2023-02-23T05:12:16;7.30;99.90
21616;DHT22;10970;48.714;9.584;2023-02-23T05:14:41;7.20;99.90
21616;DHT22;10970;48.714;9.584;2023-02-23T05:17:07;7.20;99.90
21616;DHT22;10970;48.714;9.584;2023-02-23T05:19:33;7.20;99.90
21616;DHT22;10970;48.714;9.584;2023-02-23T05:21:58;7.20;99.90
21616;DHT22;10970;48.714;9.584;2023-02-23T05:24:24;7.20;99.90
21616;DHT22;10970;48.714;9.584;2023-02-23T05:26:50;7.20;99.90
21616;DHT22;10970;48.714;9.584;2023-02-23T05:29:16;7.30;99.90
21616;DHT22;10970;48.714;9.584;2023-02-23T05:31:44;7.30;99.90
21616;DHT22;10970;48.714;9.584;2023-02-23T05:34:13;7.30;99.90
21616;DHT22;10970;48.714;9.584;2023-02-23T05:36:38;7.20;99.90
21616;DHT22;10970;48.714;9.584;2023-02-23T05:39:04;7.20;99.90
21616;DHT22;10970;48.714;9.584;2023-02-23T05:41:30;7.30;99.90
21616;DHT22;10970;48.714;9.584;2023-02-23T05:43:56;7.40;99.90
21616;DHT22;10970;48.714;9.584;2023-02-23T05:46:24;7.40;99.90
21616;DHT22;10970;48.714;9.584;2023-02-23T05:48:54;7.30;99.90
21616;DHT22;10970;48.714;9.584;2023-02-23T05:51:20;7.30;99.90
21616;DHT22;10970;48.714;9.584;2023-02-23T05:53:46;7.30;99.90
21616;DHT22;10970;48.714;9.584;2023-02-23T05:56:14;7.20;99.90
21616;DHT22;10970;48.714;9.584;2023-02-23T05:58:48;7.20;99.90
21616;DHT22;10970;48.714;9.584;2023-02-23T06:01:14;7.20;99.90
21616;DHT22;10970;48.714;9.584;2023-02-23T06:03:40;7.30;99.90
21616;DHT22;10970;48.714;9.584;2023-02-23T06:06:06;7.20;99.90
21616;DHT22;10970;48.714;9.584;2023-02-23T06:08:31;7.20;99.90
21616;DHT22;10970;48.714;9.584;2023-02-23T06:10:57;7.20;99.90
21616;DHT22;10970;48.714;9.584;2023-02-23T06:13:23;7.20;99.90
21616;DHT22;10970;48.714;9.584;2023-02-23T06:15:48;7.30;99.90
21616;DHT22;10970;48.714;9.584;2023-02-23T06:18:14;7.20;99.90
21616;DHT22;10970;48.714;9.584;2023-02-23T06:20:41;7.20;99.90
21616;DHT22;10970;48.714;9.584;2023-02-23T06:23:07;7.20;99.90
21616;DHT22;10970;48.714;9.584;2023-02-23T06:25:32;7.30;99.90
21616;DHT22;10970;48.714;9.584;2023-02-23T06:27:58;7.30;99.90
21616;DHT22;10970;48.714;9.584;2023-02-23T06:30:24;7.30;99.90
21616;DHT22;10970;48.714;9.584;2023-02-23T06:32:49;7.30;99.90
21616;DHT22;10970;48.714;9.584;2023-02-23T06:35:15;7.30;99.90
21616;DHT22;10970;48.714;9.584;2023-02-23T06:37:41;7.40;99.90
21616;DHT22;10970;48.714;9.584;2023-02-23T06:40:08;7.40;99.90
21616;DHT22;10970;48.714;9.584;2023-02-23T06:42:34;7.40;99.90
21616;DHT22;10970;48.714;9.584;2023-02-23T06:45:02;7.40;99.90
21616;DHT22;10970;48.714;9.584;2023-02-23T06:47:27;7.40;99.90
21616;DHT22;10970;48.714;9.584;2023-02-23T06:49:53;7.40;99.90
21616;DHT22;10970;48.714;9.584;2023-02-23T06:52:19;7.40;99.90
21616;DHT22;10970;48.714;9.584;2023-02-23T06:54:44;7.40;99.90
21616;DHT22;10970;48.714;9.584;2023-02-23T06:57:10;7.40;99.90
21616;DHT22;10970;48.714;9.584;2023-02-23T06:59:36;7.50;99.90
21616;DHT22;10970;48.714;9.584;2023-02-23T07:02:03;7.50;99.90
21616;DHT22;10970;48.714;9.584;2023-02-23T07:04:30;7.60;99.90
21616;DHT22;10970;48.714;9.584;2023-02-23T07:06:56;7.60;99.90
21616;DHT22;10970;48.714;9.584;2023-02-23T07:09:22;7.70;99.90
21616;DHT22;10970;48.714;9.584;2023-02-23T07:11:47;7.70;99.90
21616;DHT22;10970;48.714;9.584;2023-02-23T07:14:13;7.70;99.90
21616;DHT22;10970;48.714;9.584;2023-02-23T07:16:39;7.70;99.90
21616;DHT22;10970;48.714;9.584;2023-02-23T07:19:05;7.70;99.90
21616;DHT22;10970;48.714;9.584;2023-02-23T07:21:32;7.70;99.90
21616;DHT22;10970;48.714;9.584;2023-02-23T07:23:58;7.80;99.90
21616;DHT22;10970;48.714;9.584;2023-02-23T07:26:24;7.90;99.90
21616;DHT22;10970;48.714;9.584;2023-02-23T07:28:50;8.00;99.90
21616;DHT22;10970;48.714;9.584;2023-02-23T07:31:16;8.00;99.90
21616;DHT22;10970;48.714;9.584;2023-02-23T07:33:42;8.10;99.90
21616;DHT22;10970;48.714;9.584;2023-02-23T07:36:08;8.10;99.90
21616;DHT22;10970;48.714;9.584;2023-02-23T07:38:33;8.10;99.90
21616;DHT22;10970;48.714;9.584;2023-02-23T07:40:59;8.20;99.90
21616;DHT22;10970;48.714;9.584;2023-02-23T07:43:25;8.20;99.90
21616;DHT22;10970;48.714;9.584;2023-02-23T07:45:51;8.30;99.90
21616;DHT22;10970;48.714;9.584;2023-02-23T07:48:18;8.30;99.90
21616;DHT22;10970;48.714;9.584;2023-02-23T07:50:44;8.40;99.90
21616;DHT22;10970;48.714;9.584;2023-02-23T07:53:10;8.40;99.90
21616;DHT22;10970;48.714;9.584;2023-02-23T07:55:36;8.40;99.90
21616;DHT22;10970;48.714;9.584;2023-02-23T07:58:03;8.40;99.90
21616;DHT22;10970;48.714;9.584;2023-02-23T08:00:30;8.30;99.90
21616;DHT22;10970;48.714;9.584;2023-02-23T08:02:56;8.30;99.90
21616;DHT22;10970;48.714;9.584;2023-02-23T08:05:21;8.30;99.90
21616;DHT22;10970;48.714;9.584;2023-02-23T08:07:47;8.30;99.90
21616;DHT22;10970;48.714;9.584;2023-02-23T08:10:13;8.30;99.90
21616;DHT22;10970;48.714;9.584;2023-02-23T08:12:38;8.30;99.90
21616;DHT22;10970;48.714;9.584;2023-02-23T08:15:04;8.30;99.90
21616;DHT22;10970;48.714;9.584;2023-02-23T08:17:33;8.30;99.90
21616;DHT22;10970;48.714;9.584;2023-02-23T08:19:59;8.40;99.90
21616;DHT22;10970;48.714;9.584;2023-02-23T08:22:25;8.40;99.90
21616;DHT22;10970;48.714;9.584;2023-02-23T08:24:51;8.40;99.90
21616;DHT22;10970;48.714;9.584;2023-02-23T08:27:17;8.40;99.90
21616;DHT22;10970;48.714;9.584;2023-02-23T08:29:43;8.40;99.90
21616;DHT22;10970;48.714;9.584;2023-02-23T08:32:09;8.40;99.90
21616;DHT22;10970;48.714;9.584;2023-02-23T08:34:41;8.40;99.90
21616;DHT22;10970;48.714;9.584;2023-02-23T08:37:07;8.40;99.90
21616;DHT22;10970;48.714;9.584;2023-02-23T08:39:33;8.50;99.90
21616;DHT22;10970;48.714;9.584;2023-02-23T08:41:59;8.60;99.90
21616;DHT22;10970;48.714;9.584;2023-02-23T08:44:24;8.60;99.90
21616;DHT22;10970;48.714;9.584;2023-02-23T08:46:50;8.50;99.90
21616;DHT22;10970;48.714;9.584;2023-02-23T08:54:28;8.80;99.90
21616;DHT22;10970;48.714;9.584;2023-02-23T08:56:55;8.80;99.90
21616;DHT22;10970;48.714;9.584;2023-02-23T08:59:22;8.80;99.90
21616;DHT22;10970;48.714;9.584;2023-02-23T09:01:48;8.90;99.90
21616;DHT22;10970;48.714;9.584;2023-02-23T09:04:13;9.20;99.90
21616;DHT22;10970;48.714;9.584;2023-02-23T09:06:39;9.40;99.90
21616;DHT22;10970;48.714;9.584;2023-02-23T09:09:06;9.30;99.90
21616;DHT22;10970;48.714;9.584;2023-02-23T09:11:31;9.40;99.90
21616;DHT22;10970;48.714;9.584;2023-02-23T09:13:57;9.50;99.90
21616;DHT22;10970;48.714;9.584;2023-02-23T09:16:23;9.60;99.90
21616;DHT22;10970;48.714;9.584;2023-02-23T09:18:49;9.70;99.90
21616;DHT22;10970;48.714;9.584;2023-02-23T09:21:17;9.90;99.90
21616;DHT22;10970;48.714;9.584;2023-02-23T09:23:45;10.00;99.90
21616;DHT22;10970;48.714;9.584;2023-02-23T09:26:12;10.20;99.90
21616;DHT22;10970;48.714;9.584;2023-02-23T09:28:38;10.20;99.90
21616;DHT22;10970;48.714;9.584;2023-02-23T09:31:10;10.30;99.90
21616;DHT22;10970;48.714;9.584;2023-02-23T09:33:36;10.50;99.90
21616;DHT22;10970;48.714;9.584;2023-02-23T09:36:11;10.50;99.90
21616;DHT22;10970;48.714;9.584;2023-02-23T09:38:38;10.60;99.90
21616;DHT22;10970;48.714;9.584;2023-02-23T09:43:55;10.50;99.90
21616;DHT22;10970;48.714;9.584;2023-02-23T09:49:14;10.60;99.90
21616;DHT22;10970;48.714;9.584;2023-02-23T09:51:46;11.00;99.90
21616;DHT22;10970;48.714;9.584;2023-02-23T09:54:14;11.10;99.90
21616;DHT22;10970;48.714;9.584;2023-02-23T09:56:45;11.20;99.90
21616;DHT22;10970;48.714;9.584;2023-02-23T09:59:17;11.10;99.90
21616;DHT22;10970;48.714;9.584;2023-02-23T10:06:41;11.40;99.90
21616;DHT22;10970;48.714;9.584;2023-02-23T10:09:28;11.40;99.90
21616;DHT22;10970;48.714;9.584;2023-02-23T10:12:12;11.20;99.90
21616;DHT22;10970;48.714;9.584;2023-02-23T10:19:56;11.70;99.90
21616;DHT22;10970;48.714;9.584;2023-02-23T10:22:24;11.60;99.90
21616;DHT22;10970;48.714;9.584;2023-02-23T10:24:55;11.40;99.90
21616;DHT22;10970;48.714;9.584;2023-02-23T10:27:29;11.40;99.90
21616;DHT22;10970;48.714;9.584;2023-02-23T10:30:01;11.80;99.90
21616;DHT22;10970;48.714;9.584;2023-02-23T10:32:49;12.00;99.90
21616;DHT22;10970;48.714;9.584;2023-02-23T10:35:19;12.00;99.90
21616;DHT22;10970;48.714;9.584;2023-02-23T10:37:49;12.00;99.90
21616;DHT22;10970;48.714;9.584;2023-02-23T10:40:21;11.90;99.90
21616;DHT22;10970;48.714;9.584;2023-02-23T10:42:48;11.90;99.90
21616;DHT22;10970;48.714;9.584;2023-02-23T10:45:17;12.00;99.90
21616;DHT22;10970;48.714;9.584;2023-02-23T10:47:57;12.00;99.90
21616;DHT22;10970;48.714;9.584;2023-02-23T10:50:24;12.10;99.90
21616;DHT22;10970;48.714;9.584;2023-02-23T10:56:09;12.70;99.90
21616;DHT22;10970;48.714;9.584;2023-02-23T10:58:44;12.80;99.90
21616;DHT22;10970;48.714;9.584;2023-02-23T11:01:34;12.80;99.90
21616;DHT22;10970;48.714;9.584;2023-02-23T11:04:27;13.00;99.90
21616;DHT22;10970;48.714;9.584;2023-02-23T11:07:13;13.00;99.90
21616;DHT22;10970;48.714;9.584;2023-02-23T11:09:39;12.90;99.90
21616;DHT22;10970;48.714;9.584;2023-02-23T11:12:22;12.80;99.90
21616;DHT22;10970;48.714;9.584;2023-02-23T11:14:54;13.00;99.90
21616;DHT22;10970;48.714;9.584;2023-02-23T11:17:33;13.00;99.90
21616;DHT22;10970;48.714;9.584;2023-02-23T11:20:05;13.00;99.90
21616;DHT22;10970;48.714;9.584;2023-02-23T11:22:34;13.30;99.90
21616;DHT22;10970;48.714;9.584;2023-02-23T11:25:02;13.50;99.90
21616;DHT22;10970;48.714;9.584;2023-02-23T11:27:38;13.50;99.90
21616;DHT22;10970;48.714;9.584;2023-02-23T11:30:11;13.40;99.90
21616;DHT22;10970;48.714;9.584;2023-02-23T11:32:37;13.40;99.90
21616;DHT22;10970;48.714;9.584;2023-02-23T11:35:25;13.20;99.90
21616;DHT22;10970;48.714;9.584;2023-02-23T11:37:53;13.50;99.90
21616;DHT22;10970;48.714;9.584;2023-02-23T11:42:52;13.60;99.90
21616;DHT22;10970;48.714;9.584;2023-02-23T11:45:19;13.50;99.90
21616;DHT22;10970;48.714;9.584;2023-02-23T11:47:48;13.50;99.90
21616;DHT22;10970;48.714;9.584;2023-02-23T11:50:28;13.60;99.90
21616;DHT22;10970;48.714;9.584;2023-02-23T11:55:36;13.50;99.90
21616;DHT22;10970;48.714;9.584;2023-02-23T11:58:37;13.50;99.90
21616;DHT22;10970;48.714;9.584;2023-02-23T12:01:08;13.70;99.90
21616;DHT22;10970;48.714;9.584;2023-02-23T12:03:53;13.70;99.90
21616;DHT22;10970;48.714;9.584;2023-02-23T12:06:40;13.70;99.90
21616;DHT22;10970;48.714;9.584;2023-02-23T12:09:26;13.40;99.90
21616;DHT22;10970;48.714;9.584;2023-02-23T12:12:05;13.50;99.90
21616;DHT22;10970;48.714;9.584;2023-02-23T12:14:50;13.60;99.90
21616;DHT22;10970;48.714;9.584;2023-02-23T12:17:25;13.80;99.90
21616;DHT22;10970;48.714;9.584;2023-02-23T12:22:26;14.00;99.90
21616;DHT22;10970;48.714;9.584;2023-02-23T12:25:11;14.20;99.90
21616;DHT22;10970;48.714;9.584;2023-02-23T12:27:45;14.20;99.90
21616;DHT22;10970;48.714;9.584;2023-02-23T12:38:11;14.10;99.90
21616;DHT22;10970;48.714;9.584;2023-02-23T12:40:38;14.20;99.90
21616;DHT22;10970;48.714;9.584;2023-02-23T12:46:09;14.10;99.90
21616;DHT22;10970;48.714;9.584;2023-02-23T12:51:07;14.30;99.90
21616;DHT22;10970;48.714;9.584;2023-02-23T12:53:40;14.20;99.90
21616;DHT22;10970;48.714;9.584;2023-02-23T13:01:35;14.40;99.90
21616;DHT22;10970;48.714;9.584;2023-02-23T13:04:38;14.50;99.90
21616;DHT22;10970;48.714;9.584;2023-02-23T13:07:41;14.50;99.90
21616;DHT22;10970;48.714;9.584;2023-02-23T13:12:56;14.30;99.90
21616;DHT22;10970;48.714;9.584;2023-02-23T13:20:49;14.60;99.90
21616;DHT22;10970;48.714;9.584;2023-02-23T13:23:50;14.60;99.90
21616;DHT22;10970;48.714;9.584;2023-02-23T13:26:29;14.50;99.90
21616;DHT22;10970;48.714;9.584;2023-02-23T13:29:05;14.50;99.90
21616;DHT22;10970;48.714;9.584;2023-02-23T13:31:36;14.60;99.90
21616;DHT22;10970;48.714;9.584;2023-02-23T13:34:05;14.70;99.90
21616;DHT22;10970;48.714;9.584;2023-02-23T13:36:33;14.70;99.90
21616;DHT22;10970;48.714;9.584;2023-02-23T13:44:54;14.40;99.90
21616;DHT22;10970;48.714;9.584;2023-02-23T13:50:27;14.20;99.90
21616;DHT22;10970;48.714;9.584;2023-02-23T13:52:55;14.20;99.90
21616;DHT22;10970;48.714;9.584;2023-02-23T13:58:02;14.10;99.90
21616;DHT22;10970;48.714;9.584;2023-02-23T14:00:28;14.00;99.90
21616;DHT22;10970;48.714;9.584;2023-02-23T14:02:55;13.80;99.90
21616;DHT22;10970;48.714;9.584;2023-02-23T14:05:23;13.70;99.90
21616;DHT22;10970;48.714;9.584;2023-02-23T14:08:00;13.60;99.90
21616;DHT22;10970;48.714;9.584;2023-02-23T14:10:34;13.90;99.90
21616;DHT22;10970;48.714;9.584;2023-02-23T14:15:47;13.90;99.90
21616;DHT22;10970;48.714;9.584;2023-02-23T14:21:18;14.00;99.90
21616;DHT22;10970;48.714;9.584;2023-02-23T14:24:34;13.80;99.90
21616;DHT22;10970;48.714;9.584;2023-02-23T14:29:39;13.90;99.90
21616;DHT22;10970;48.714;9.584;2023-02-23T14:40:04;13.90;99.90
21616;DHT22;10970;48.714;9.584;2023-02-23T14:42:31;13.90;99.90
21616;DHT22;10970;48.714;9.584;2023-02-23T14:45:23;14.00;99.90
21616;DHT22;10970;48.714;9.584;2023-02-23T14:48:05;13.70;99.90
21616;DHT22;10970;48.714;9.584;2023-02-23T14:50:33;13.50;99.90
21616;DHT22;10970;48.714;9.584;2023-02-23T14:53:01;13.70;99.90
21616;DHT22;10970;48.714;9.584;2023-02-23T14:55:32;13.70;99.90
21616;DHT22;10970;48.714;9.584;2023-02-23T14:58:17;13.70;99.90
21616;DHT22;10970;48.714;9.584;2023-02-23T15:00:45;13.80;99.90
21616;DHT22;10970;48.714;9.584;2023-02-23T15:03:13;13.80;99.90
21616;DHT22;10970;48.714;9.584;2023-02-23T15:06:05;13.80;99.90
21616;DHT22;10970;48.714;9.584;2023-02-23T15:08:36;13.70;99.90
21616;DHT22;10970;48.714;9.584;2023-02-23T15:11:13;13.70;99.90
21616;DHT22;10970;48.714;9.584;2023-02-23T15:13:41;13.60;99.90
21616;DHT22;10970;48.714;9.584;2023-02-23T15:16:34;13.50;99.90
21616;DHT22;10970;48.714;9.584;2023-02-23T15:19:02;13.60;99.90
21616;DHT22;10970;48.714;9.584;2023-02-23T15:21:29;13.50;99.90
21616;DHT22;10970;48.714;9.584;2023-02-23T15:24:05;13.50;99.90
21616;DHT22;10970;48.714;9.584;2023-02-23T15:26:38;13.60;99.90
21616;DHT22;10970;48.714;9.584;2023-02-23T15:31:38;13.60;99.90
21616;DHT22;10970;48.714;9.584;2023-02-23T15:34:26;13.60;99.90
21616;DHT22;10970;48.714;9.584;2023-02-23T15:39:49;13.50;99.90
21616;DHT22;10970;48.714;9.584;2023-02-23T15:42:21;13.50;99.90
21616;DHT22;10970;48.714;9.584;2023-02-23T15:44:54;13.40;99.90
21616;DHT22;10970;48.714;9.584;2023-02-23T15:47:23;13.30;99.90
21616;DHT22;10970;48.714;9.584;2023-02-23T15:50:04;13.30;99.90
21616;DHT22;10970;48.714;9.584;2023-02-23T15:52:31;13.20;99.90
21616;DHT22;10970;48.714;9.584;2023-02-23T15:55:07;13.20;99.90
21616;DHT22;10970;48.714;9.584;2023-02-23T15:57:52;13.10;99.90
21616;DHT22;10970;48.714;9.584;2023-02-23T16:00:41;13.10;99.90
21616;DHT22;10970;48.714;9.584;2023-02-23T16:03:07;13.00;99.90
21616;DHT22;10970;48.714;9.584;2023-02-23T16:05:34;12.90;99.90
21616;DHT22;10970;48.714;9.584;2023-02-23T16:08:19;12.90;99.90
21616;DHT22;10970;48.714;9.584;2023-02-23T16:10:49;12.80;99.90
21616;DHT22;10970;48.714;9.584;2023-02-23T16:13:19;12.70;99.90
21616;DHT22;10970;48.714;9.584;2023-02-23T16:15:45;12.70;99.90
21616;DHT22;10970;48.714;9.584;2023-02-23T16:18:15;12.60;99.90
21616;DHT22;10970;48.714;9.584;2023-02-23T16:20:46;12.60;99.90
21616;DHT22;10970;48.714;9.584;2023-02-23T16:23:30;12.50;99.90
21616;DHT22;10970;48.714;9.584;2023-02-23T16:28:56;12.40;99.90
21616;DHT22;10970;48.714;9.584;2023-02-23T16:31:39;12.30;99.90
21616;DHT22;10970;48.714;9.584;2023-02-23T16:34:25;12.30;99.90
21616;DHT22;10970;48.714;9.584;2023-02-23T16:36:56;12.30;99.90
21616;DHT22;10970;48.714;9.584;2023-02-23T16:39:24;12.20;99.90
21616;DHT22;10970;48.714;9.584;2023-02-23T16:41:54;12.10;99.90
21616;DHT22;10970;48.714;9.584;2023-02-23T16:44:27;12.10;99.90
21616;DHT22;10970;48.714;9.584;2023-02-23T16:49:22;12.00;99.90
21616;DHT22;10970;48.714;9.584;2023-02-23T16:51:49;12.00;99.90
21616;DHT22;10970;48.714;9.584;2023-02-23T16:54:14;11.90;99.90
21616;DHT22;10970;48.714;9.584;2023-02-23T16:56:40;11.80;99.90
21616;DHT22;10970;48.714;9.584;2023-02-23T16:59:06;11.70;99.90
21616;DHT22;10970;48.714;9.584;2023-02-23T17:01:35;11.70;99.90
21616;DHT22;10970;48.714;9.584;2023-02-23T17:04:01;11.70;99.90
21616;DHT22;10970;48.714;9.584;2023-02-23T17:06:27;11.60;99.90
21616;DHT22;10970;48.714;9.584;2023-02-23T17:08:53;11.60;99.90
21616;DHT22;10970;48.714;9.584;2023-02-23T17:11:19;11.50;99.90
21616;DHT22;10970;48.714;9.584;2023-02-23T17:13:45;11.50;99.90
21616;DHT22;10970;48.714;9.584;2023-02-23T17:16:12;11.50;99.90
21616;DHT22;10970;48.714;9.584;2023-02-23T17:18:38;11.40;99.90
21616;DHT22;10970;48.714;9.584;2023-02-23T17:21:07;11.40;99.90
21616;DHT22;10970;48.714;9.584;2023-02-23T17:23:36;11.40;99.90
21616;DHT22;10970;48.714;9.584;2023-02-23T17:26:16;11.40;99.90
21616;DHT22;10970;48.714;9.584;2023-02-23T17:28:42;11.30;99.90
21616;DHT22;10970;48.714;9.584;2023-02-23T17:31:08;11.30;99.90
21616;DHT22;10970;48.714;9.584;2023-02-23T17:33:35;11.30;99.90
21616;DHT22;10970;48.714;9.584;2023-02-23T17:36:04;11.40;99.90
21616;DHT22;10970;48.714;9.584;2023-02-23T17:38:30;11.30;99.90
21616;DHT22;10970;48.714;9.584;2023-02-23T17:41:05;11.30;99.90
21616;DHT22;10970;48.714;9.584;2023-02-23T17:43:32;11.30;99.90
21616;DHT22;10970;48.714;9.584;2023-02-23T17:45:58;11.30;99.90
21616;DHT22;10970;48.714;9.584;2023-02-23T17:48:25;11.20;99.90
21616;DHT22;10970;48.714;9.584;2023-02-23T17:50:59;11.20;99.90
21616;DHT22;10970;48.714;9.584;2023-02-23T17:53:26;11.20;99.90
21616;DHT22;10970;48.714;9.584;2023-02-23T17:55:53;11.20;99.90
21616;DHT22;10970;48.714;9.584;2023-02-23T17:58:19;11.20;99.90
21616;DHT22;10970;48.714;9.584;2023-02-23T18:00:45;11.20;99.90
21616;DHT22;10970;48.714;9.584;2023-02-23T18:03:10;11.10;99.90
21616;DHT22;10970;48.714;9.584;2023-02-23T18:05:36;11.10;99.90
21616;DHT22;10970;48.714;9.584;2023-02-23T18:08:02;11.10;99.90
21616;DHT22;10970;48.714;9.584;2023-02-23T18:10:27;11.00;99.90
21616;DHT22;10970;48.714;9.584;2023-02-23T18:12:53;11.00;99.90
21616;DHT22;10970;48.714;9.584;2023-02-23T18:15:19;11.00;99.90